Portada
METAR-TAF:

METAR-TAF

Aeroports :

Vladivostok, Rússia

latitud: 43-07N, longitud: 131-56E, altitud: 184 m

Observació

L'informe es va fer fa 21 minuts, a les 06:30 UTC
Vent 14 kt del Nord/Nord-Oest
Temperatura -7°C
Humitat 26%
Pressió 1014 hPa
Visibilitat 10 km o més

METAR: UHWW 200630Z 34007MPS 9999 NSC M07/M23 Q1014 WS R25L R25L/0///70 NOSIG RMK QFE759

Hora: 16:51 (06:51 UTC)

Pronòstic

L'informe es va fer fa 1 hora i 56 minuts, a les 04:55 UTC
Pronòstic vàlid del 20 a les 06 UTC al 21 a les 06 UTC
Vent 12 kt del Nord/Nord-Oest
Visibilitat 10 km o més
Temporalment
l' 20 a les 06 UTC al 20 a les 10 UTC
Vent 19 kt del Nord-Oest amb ràfegues de 29 kt
Núvols disperses a una alçada de 3000 ft
Evolucionant progressivament
l' 20 a les 10 UTC al 20 a les 12 UTC
Vent 6 kt del Nord/Nord-Oest

TAF: UHWW 200455Z 2006/2106 33006MPS 9999 NSC TEMPO 2006/2010 32010G15MPS SCT030 BECMG 2010/2012 34003MPS

Observacions i pronòstics meteorològics de més de 4000 aeroports (METAR i TAF).

Les estacions disponibles són els punts grocs i vermells al mapa.

Posi el ratolí al punt desitjat per veure el nom de l'estació.

Feu clic per veure les observacions i els pronòstics meteorològics.

Per canviar el mapa: feu clic els botons verds amb una creu de color negre per apropar; al botó verd amb un guió per allunyar la imatge; o en les fletxes verdes per a mapes adjacents.


METAR-TAF: